Time;durP1;ratioP1;P1;durP2;ratioP2;P2;SDS_P1;SDS_P2;PMS_P1;PMS_P2;Temp;Humidity;BMP_temperature;BMP_pressure;BME280_temperature;BME280_humidity;BME280_pressure;Samples;Min_cycle;Max_cycle;Signal;HPM_P1;HPM_P2
2023/10/06 00:01:44;;;;;;;;;;;;;;;9.64;83.40;101790.19;106247;1262;125097;-81
2023/10/06 00:04:12;;;;;;;;;;;;;;;9.63;83.45;101790.84;106301;1259;61177;-81
2023/10/06 00:06:42;;;;;;;;;;;;;;;9.62;83.52;101790.98;106078;1262;124960;-82
2023/10/06 00:09:09;;;;;;;;;;;;;;;9.61;83.55;101791.64;106195;1270;64553;-81
2023/10/06 00:11:40;;;;;;;;;;;;;;;9.61;83.56;101790.77;106387;1262;124931;-81
2023/10/06 00:14:07;;;;;;;;;;;;;;;9.61;83.62;101794.27;106189;1261;61253;-81
2023/10/06 00:16:39;;;;;;;;;;;;;;;9.60;83.66;101793.86;106076;1261;61263;-81
2023/10/06 00:19:55;;;;;;;;;;;;;;;9.61;83.72;101793.52;106045;1264;125794;-81
2023/10/06 00:22:03;;;;;;;;;;;;;;;9.60;83.71;101792.45;106168;1259;66246;-81
2023/10/06 00:24:31;;;;;;;;;;;;;;;9.58;83.63;101793.77;106291;1259;124735;-81
2023/10/06 00:26:58;;;;;;;;;;;;;;;9.57;83.68;101795.66;106207;1259;60050;-82
2023/10/06 00:29:27;;;;;;;;;;;;;;;9.56;83.63;101794.73;106132;1259;61147;-81
2023/10/06 00:32:00;;;;;;;;;;;;;;;9.55;83.71;101793.80;106707;1260;74713;-81
2023/10/06 00:34:30;;;;;;;;;;;;;;;9.54;83.71;101792.89;106382;1262;64604;-81
2023/10/06 00:36:57;;;;;;;;;;;;;;;9.53;83.68;101796.02;106145;1262;124800;-81
2023/10/06 00:39:24;;;;;;;;;;;;;;;9.51;83.77;101794.02;106257;1262;61393;-81
2023/10/06 00:42:02;;;;;;;;;;;;;;;9.50;83.80;101793.61;106044;1262;124921;-81
2023/10/06 00:44:30;;;;;;;;;;;;;;;9.50;83.86;101794.65;106290;1260;74707;-81
2023/10/06 00:47:05;;;;;;;;;;;;;;;9.50;83.88;101793.74;106160;1264;66298;-81
2023/10/06 00:49:32;;;;;;;;;;;;;;;9.49;83.82;101794.22;106155;1262;124826;-81
2023/10/06 00:52:06;;;;;;;;;;;;;;;9.48;83.96;101794.20;106169;1266;61385;-82
2023/10/06 00:54:33;;;;;;;;;;;;;;;9.48;83.96;101793.52;106092;1260;125100;-82
2023/10/06 00:57:08;;;;;;;;;;;;;;;9.48;84.03;101789.14;106180;1259;74707;-82
2023/10/06 00:59:37;;;;;;;;;;;;;;;9.49;84.13;101793.36;106246;1259;124912;-81
2023/10/06 01:02:08;;;;;;;;;;;;;;;9.50;84.14;101793.08;106255;1258;72430;-82
2023/10/06 01:04:44;;;;;;;;;;;;;;;9.51;84.24;101794.50;106284;1259;61187;-82
2023/10/06 01:07:15;;;;;;;;;;;;;;;9.52;84.18;101798.41;106128;1259;125181;-81
2023/10/06 01:09:56;;;;;;;;;;;;;;;9.53;84.20;101800.39;106322;1258;74706;-81
2023/10/06 01:12:31;;;;;;;;;;;;;;;9.53;84.21;101802.88;106134;1263;124947;-81
2023/10/06 01:15:16;;;;;;;;;;;;;;;9.54;84.31;101796.23;106218;1259;72697;-82
2023/10/06 01:17:43;;;;;;;;;;;;;;;9.57;84.39;101798.96;106070;1263;124923;-82
2023/10/06 01:20:11;;;;;;;;;;;;;;;9.59;84.42;101800.65;106280;1259;61368;-82
2023/10/06 01:22:44;;;;;;;;;;;;;;;9.62;84.47;101804.81;106251;1259;74506;-82
2023/10/06 01:25:21;;;;;;;;;;;;;;;9.64;84.42;101810.67;106163;1262;125358;-82
2023/10/06 01:27:50;;;;;;;;;;;;;;;9.63;84.31;101813.80;106543;1259;72593;-82
2023/10/06 01:30:17;;;;;;;;;;;;;;;9.63;84.42;101816.23;106193;1260;124891;-82
2023/10/06 01:32:50;;;;;;;;;;;;;;;9.62;84.29;101819.20;106396;1265;61271;-82
2023/10/06 01:35:23;;;;;;;;;;;;;;;9.61;84.29;101812.11;106195;1258;73412;-82
2023/10/06 01:38:22;;;;;;;;;;;;;;;9.59;84.23;101811.48;106383;1259;124669;-81
2023/10/06 01:40:45;;;;;;;;;;;;;;;9.57;84.26;101817.55;106284;1259;72874;-82
2023/10/06 01:43:14;;;;;;;;;;;;;;;9.55;84.31;101814.14;106160;1259;125099;-83
2023/10/06 01:45:44;;;;;;;;;;;;;;;9.54;84.34;101814.09;106224;1259;61261;-81
2023/10/06 01:50:41;;;;;;;;;;;;;;;9.51;84.34;101816.95;106368;1264;66378;-82
2023/10/06 01:53:10;;;;;;;;;;;;;;;9.49;84.20;101821.56;106008;1259;72713;-81
2023/10/06 01:55:39;;;;;;;;;;;;;;;9.46;84.21;101824.02;106232;1264;125623;-82
2023/10/06 01:58:11;;;;;;;;;;;;;;;9.43;84.22;101825.83;106297;1265;61305;-81
2023/10/06 02:00:37;;;;;;;;;;;;;;;9.42;84.27;101824.04;106190;1259;124899;-82
2023/10/06 02:03:09;;;;;;;;;;;;;;;9.41;84.28;101824.00;106319;1264;64185;-82
2023/10/06 02:05:38;;;;;;;;;;;;;;;9.40;84.23;101822.54;106152;1263;125555;-80
2023/10/06 02:08:09;;;;;;;;;;;;;;;9.39;84.30;101823.04;106204;1260;61398;-81
2023/10/06 02:10:36;;;;;;;;;;;;;;;9.39;84.35;101828.98;106335;1259;61356;-81
2023/10/06 02:13:04;;;;;;;;;;;;;;;9.39;84.34;101831.08;106023;1259;125330;-81
2023/10/06 02:15:32;;;;;;;;;;;;;;;9.38;84.31;101829.28;106265;1260;66350;-82
2023/10/06 02:17:58;;;;;;;;;;;;;;;9.37;84.24;101833.44;106086;1259;125027;-81
2023/10/06 02:22:52;;;;;;;;;;;;;;;9.35;84.26;101836.51;106277;1263;59588;-82
2023/10/06 02:25:18;;;;;;;;;;;;;;;9.33;84.30;101837.98;106141;1259;125177;-82
2023/10/06 02:27:50;;;;;;;;;;;;;;;9.32;84.36;101837.41;106247;1263;65987;-82
2023/10/06 02:30:24;;;;;;;;;;;;;;;9.31;84.45;101839.48;106157;1259;124822;-81
2023/10/06 02:32:51;;;;;;;;;;;;;;;9.29;84.32;101840.24;106247;1259;61257;-80
2023/10/06 02:35:18;;;;;;;;;;;;;;;9.26;84.29;101844.31;106241;1257;61203;-79
2023/10/06 02:37:49;;;;;;;;;;;;;;;9.23;84.31;101851.54;106189;1259;124816;-80
2023/10/06 02:40:16;;;;;;;;;;;;;;;9.22;84.32;101857.44;106337;1258;66114;-80
2023/10/06 02:42:52;;;;;;;;;;;;;;;9.22;84.35;101859.35;106239;1260;124948;-81
2023/10/06 02:45:22;;;;;;;;;;;;;;;9.22;84.48;101856.18;106127;1260;61345;-80
2023/10/06 02:47:49;;;;;;;;;;;;;;;9.24;84.62;101858.41;106223;1259;125440;-80
2023/10/06 02:50:24;;;;;;;;;;;;;;;9.26;84.61;101857.44;106262;1259;74783;-80
2023/10/06 02:52:53;;;;;;;;;;;;;;;9.30;84.78;101857.11;106292;1265;64991;-80
2023/10/06 02:55:20;;;;;;;;;;;;;;;9.34;84.95;101854.51;106133;1259;125895;-80
2023/10/06 02:57:55;;;;;;;;;;;;;;;9.40;85.08;101852.32;106283;1259;59299;-80
2023/10/06 03:02:56;;;;;;;;;;;;;;;9.51;85.16;101862.31;106281;1259;74739;-80
2023/10/06 03:05:33;;;;;;;;;;;;;;;9.56;85.18;101864.81;106257;1260;65976;-79
2023/10/06 03:08:08;;;;;;;;;;;;;;;9.60;85.05;101865.70;105553;1259;71417;-81
2023/10/06 03:10:42;;;;;;;;;;;;;;;9.64;84.96;101859.05;106231;1260;61308;-79
2023/10/06 03:13:10;;;;;;;;;;;;;;;9.66;84.88;101859.52;106998;1259;125610;-79
2023/10/06 03:15:45;;;;;;;;;;;;;;;9.69;84.88;101856.84;106467;1262;73730;-80
2023/10/06 03:18:15;;;;;;;;;;;;;;;9.73;84.88;101852.13;106260;1259;124965;-80
2023/10/06 03:20:48;;;;;;;;;;;;;;;9.75;84.84;101847.10;106459;1263;72703;-78
2023/10/06 03:23:26;;;;;;;;;;;;;;;9.79;84.77;101849.25;107736;1262;60040;-78
2023/10/06 03:25:53;;;;;;;;;;;;;;;9.84;84.76;101845.61;106304;1259;124544;-81
2023/10/06 03:28:23;;;;;;;;;;;;;;;9.88;84.82;101846.85;106078;1265;74653;-80
2023/10/06 03:30:50;;;;;;;;;;;;;;;9.92;84.63;101847.91;106244;1257;124898;-80
2023/10/06 03:33:19;;;;;;;;;;;;;;;9.97;84.70;101847.77;106219;1259;72706;-81
2023/10/06 03:35:47;;;;;;;;;;;;;;;10.01;84.74;101845.48;106215;1259;124975;-81
2023/10/06 03:46:07;;;;;;;;;;;;;;;10.16;84.55;101834.93;106242;1259;72706;-81
2023/10/06 03:48:34;;;;;;;;;;;;;;;10.17;84.41;101837.27;106270;1260;125994;-80
2023/10/06 03:51:01;;;;;;;;;;;;;;;10.18;84.31;101842.73;106286;1265;61180;-81
2023/10/06 03:53:29;;;;;;;;;;;;;;;10.20;84.35;101846.49;106335;1261;73698;-81
2023/10/06 03:55:57;;;;;;;;;;;;;;;10.23;84.42;101845.59;106305;1260;125117;-81
2023/10/06 03:58:31;;;;;;;;;;;;;;;10.25;84.30;101845.16;106372;1259;72706;-83
2023/10/06 04:01:07;;;;;;;;;;;;;;;10.27;84.21;101842.42;106200;1262;124909;-80
2023/10/06 04:03:33;;;;;;;;;;;;;;;10.28;84.28;101841.06;106157;1264;61224;-79
2023/10/06 04:06:03;;;;;;;;;;;;;;;10.30;84.23;101845.38;106264;1262;125313;-79
2023/10/06 04:08:30;;;;;;;;;;;;;;;10.32;84.21;101844.10;108812;1259;67328;-79
2023/10/06 04:10:59;;;;;;;;;;;;;;;10.35;84.19;101847.36;106297;1265;71354;-80
2023/10/06 04:13:26;;;;;;;;;;;;;;;10.36;84.15;101847.94;106540;1260;124970;-81
2023/10/06 04:15:53;;;;;;;;;;;;;;;10.37;84.17;101851.14;106255;1265;61457;-80
2023/10/06 04:18:23;;;;;;;;;;;;;;;10.39;84.21;101854.02;106101;1262;124957;-80
2023/10/06 04:20:51;;;;;;;;;;;;;;;10.41;84.18;101856.56;106333;1262;66110;-80
2023/10/06 04:23:17;;;;;;;;;;;;;;;10.43;84.13;101855.98;106244;1261;71402;-80
2023/10/06 04:25:47;;;;;;;;;;;;;;;10.46;84.16;101860.98;106269;1263;125995;-80
2023/10/06 04:28:14;;;;;;;;;;;;;;;10.47;84.07;101865.28;106207;1259;60215;-81
2023/10/06 04:30:44;;;;;;;;;;;;;;;10.48;84.14;101864.27;106141;1261;125191;-80
2023/10/06 04:33:11;;;;;;;;;;;;;;;10.48;84.01;101862.52;106338;1259;66520;-81
2023/10/06 04:35:42;;;;;;;;;;;;;;;10.49;83.98;101865.34;106306;1259;125302;-80
2023/10/06 04:38:12;;;;;;;;;;;;;;;10.49;83.98;101865.34;106783;1260;61379;-81
2023/10/06 04:40:40;;;;;;;;;;;;;;;10.48;83.92;101867.44;106403;1260;61274;-81
2023/10/06 04:43:07;;;;;;;;;;;;;;;10.49;83.93;101867.64;106139;1260;125192;-82
2023/10/06 04:45:34;;;;;;;;;;;;;;;10.51;84.01;101871.92;106444;1263;65264;-82
2023/10/06 04:48:00;;;;;;;;;;;;;;;10.54;83.94;101870.98;106357;1260;125310;-80
2023/10/06 04:50:30;;;;;;;;;;;;;;;10.54;83.92;101874.52;106483;1263;61379;-82
2023/10/06 04:52:56;;;;;;;;;;;;;;;10.56;83.93;101873.89;106135;1264;60137;-81
2023/10/06 04:55:23;;;;;;;;;;;;;;;10.58;83.96;101871.52;106290;1259;125398;-82
2023/10/06 04:57:49;;;;;;;;;;;;;;;10.61;83.93;101871.66;106297;1259;66287;-83
2023/10/06 05:00:19;;;;;;;;;;;;;;;10.63;83.74;101866.81;106208;1263;125106;-83
2023/10/06 05:02:47;;;;;;;;;;;;;;;10.62;83.69;101861.70;106273;1259;61304;-82
2023/10/06 05:05:14;;;;;;;;;;;;;;;10.62;83.60;101861.70;106097;1259;61356;-80
2023/10/06 05:07:40;;;;;;;;;;;;;;;10.62;83.78;101862.05;106108;1261;126093;-83
2023/10/06 05:10:13;;;;;;;;;;;;;;;10.63;83.70;101860.86;106175;1263;65596;-80
2023/10/06 05:12:42;;;;;;;;;;;;;;;10.63;83.55;101859.61;105817;1274;126369;-80
2023/10/06 05:15:10;;;;;;;;;;;;;;;10.62;83.53;101854.13;105563;1265;61425;-81
2023/10/06 05:17:37;;;;;;;;;;;;;;;10.63;83.55;101851.90;106097;1266;125090;-82
2023/10/06 05:20:04;;;;;;;;;;;;;;;10.65;83.60;101853.55;106241;1262;73396;-83
2023/10/06 05:22:31;;;;;;;;;;;;;;;10.67;83.64;101853.46;106523;1263;66517;-82
2023/10/06 05:25:01;;;;;;;;;;;;;;;10.70;83.58;101855.00;106610;1261;124968;-81
2023/10/06 05:27:28;;;;;;;;;;;;;;;10.71;83.53;101858.39;106605;1260;59361;-81
2023/10/06 05:29:55;;;;;;;;;;;;;;;10.72;83.51;101864.73;106351;1265;125084;-81
2023/10/06 05:32:22;;;;;;;;;;;;;;;10.73;83.50;101866.01;106539;1260;74534;-81
2023/10/06 05:34:50;;;;;;;;;;;;;;;10.76;83.51;101864.02;106542;1261;65241;-81
2023/10/06 05:37:17;;;;;;;;;;;;;;;10.80;83.52;101868.95;106524;1263;125370;-81
2023/10/06 05:39:46;;;;;;;;;;;;;;;10.83;83.41;101874.66;106443;1265;61369;-82
2023/10/06 05:42:13;;;;;;;;;;;;;;;10.83;83.34;101879.96;106340;1263;125234;-83
2023/10/06 05:44:39;;;;;;;;;;;;;;;10.83;83.27;101876.46;106189;1265;74720;-81
2023/10/06 05:47:08;;;;;;;;;;;;;;;10.84;83.22;101881.77;106445;1264;66280;-81
2023/10/06 05:49:38;;;;;;;;;;;;;;;10.86;83.21;101881.65;106269;1263;124931;-80
2023/10/06 05:52:10;;;;;;;;;;;;;;;10.87;83.14;101877.30;106353;1265;61314;-81
2023/10/06 05:54:37;;;;;;;;;;;;;;;10.87;83.20;101876.64;106276;1263;125396;-81
2023/10/06 05:57:04;;;;;;;;;;;;;;;10.89;83.18;101874.08;106425;1261;73879;-80
2023/10/06 05:59:36;;;;;;;;;;;;;;;10.92;83.12;101876.63;106744;1260;64473;-81
2023/10/06 06:02:04;;;;;;;;;;;;;;;10.94;83.20;101876.70;106751;1263;72647;-81
2023/10/06 06:04:34;;;;;;;;;;;;;;;10.98;83.23;101879.01;108886;1259;59065;-81
2023/10/06 06:07:02;;;;;;;;;;;;;;;11.05;83.31;101878.61;107727;1260;125619;-81
2023/10/06 06:09:33;;;;;;;;;;;;;;;11.14;83.32;101880.36;106594;1260;74710;-81
2023/10/06 06:12:00;;;;;;;;;;;;;;;11.22;83.30;101881.07;106354;1264;125378;-81
2023/10/06 06:14:27;;;;;;;;;;;;;;;11.31;83.15;101880.49;106333;1264;71455;-82
2023/10/06 06:16:53;;;;;;;;;;;;;;;11.38;83.20;101890.27;106307;1263;61400;-83
2023/10/06 06:19:20;;;;;;;;;;;;;;;11.44;83.17;101887.38;106238;1264;125025;-82
2023/10/06 06:21:48;;;;;;;;;;;;;;;11.52;83.23;101889.23;106166;1259;73379;-81
2023/10/06 06:24:20;;;;;;;;;;;;;;;11.61;83.16;101886.80;106269;1264;125380;-81
2023/10/06 06:26:47;;;;;;;;;;;;;;;11.75;83.38;101880.80;106152;1261;71257;-81
2023/10/06 06:29:13;;;;;;;;;;;;;;;11.90;83.40;101884.36;106312;1261;61180;-80
2023/10/06 06:31:43;;;;;;;;;;;;;;;12.04;83.46;101886.70;106229;1263;125573;-81
2023/10/06 06:34:09;;;;;;;;;;;;;;;12.19;83.46;101880.55;106089;1262;73420;-82
2023/10/06 06:36:36;;;;;;;;;;;;;;;12.33;83.21;101879.10;106198;1260;125130;-81
2023/10/06 06:39:03;;;;;;;;;;;;;;;12.51;83.50;101877.48;106154;1264;72696;-82
2023/10/06 06:41:30;;;;;;;;;;;;;;;12.76;83.46;101877.10;106299;1264;61288;-81
2023/10/06 06:44:01;;;;;;;;;;;;;;;12.99;83.22;101874.02;106349;1261;124941;-81
2023/10/06 06:46:29;;;;;;;;;;;;;;;13.17;82.93;101876.52;106407;1263;73014;-81
2023/10/06 06:48:56;;;;;;;;;;;;;;;13.27;82.36;101877.03;106142;1258;125444;-83
2023/10/06 06:51:28;;;;;;;;;;;;;;;13.38;82.08;101872.65;106351;1261;71474;-82
2023/10/06 06:53:57;;;;;;;;;;;;;;;13.62;82.27;101867.38;106041;1265;125252;-82
2023/10/06 06:56:28;;;;;;;;;;;;;;;13.99;82.32;101872.52;106188;1260;60557;-83
2023/10/06 06:58:56;;;;;;;;;;;;;;;14.28;81.67;101868.56;106344;1264;73252;-81
2023/10/06 07:01:23;;;;;;;;;;;;;;;14.40;81.13;101868.19;106310;1264;124898;-81
2023/10/06 07:03:50;;;;;;;;;;;;;;;14.51;80.78;101866.91;106176;1259;72667;-81
2023/10/06 07:06:17;;;;;;;;;;;;;;;14.58;80.34;101863.95;106080;1267;125391;-81
2023/10/06 07:08:44;;;;;;;;;;;;;;;14.62;79.84;101858.39;106426;1259;61369;-83
2023/10/06 07:11:12;;;;;;;;;;;;;;;14.63;79.62;101854.53;106313;1263;73744;-83
2023/10/06 07:13:39;;;;;;;;;;;;;;;14.66;79.58;101845.43;106294;1259;124197;-81
2023/10/06 07:16:09;;;;;;;;;;;;;;;14.74;79.59;101845.10;106169;1266;72739;-82
2023/10/06 07:18:36;;;;;;;;;;;;;;;14.83;79.33;101848.67;106291;1261;124916;-81
2023/10/06 07:21:09;;;;;;;;;;;;;;;14.84;78.99;101840.59;106188;1261;61292;-81
2023/10/06 07:23:37;;;;;;;;;;;;;;;14.86;78.93;101838.14;106272;1260;125385;-82
2023/10/06 07:26:10;;;;;;;;;;;;;;;14.89;78.65;101836.29;106238;1261;63865;-83
2023/10/06 07:28:39;;;;;;;;;;;;;;;14.89;78.58;101838.94;106245;1263;72451;-81
2023/10/06 07:31:12;;;;;;;;;;;;;;;14.90;78.58;101841.09;106034;1264;125475;-81
2023/10/06 07:33:39;;;;;;;;;;;;;;;14.95;78.56;101841.02;106181;1260;59844;-81
2023/10/06 07:36:13;;;;;;;;;;;;;;;15.01;78.42;101840.81;106224;1260;125020;-81
2023/10/06 07:38:41;;;;;;;;;;;;;;;15.06;78.27;101839.89;107216;1260;66104;-82
2023/10/06 07:41:07;;;;;;;;;;;;;;;15.08;78.10;101843.83;106343;1261;71381;-81
2023/10/06 07:43:34;;;;;;;;;;;;;;;15.07;77.84;101845.73;106257;1261;125438;-81
2023/10/06 07:46:11;;;;;;;;;;;;;;;15.05;77.69;101843.92;106340;1263;59911;-83
2023/10/06 07:48:37;;;;;;;;;;;;;;;15.05;77.78;101842.52;106268;1261;125550;-81
2023/10/06 07:51:06;;;;;;;;;;;;;;;15.08;77.74;101839.58;106207;1259;66367;-81
2023/10/06 07:53:35;;;;;;;;;;;;;;;15.09;77.55;101834.30;106820;1260;71294;-81
2023/10/06 07:56:06;;;;;;;;;;;;;;;15.10;77.63;101832.55;106380;1260;61203;-81
2023/10/06 07:58:41;;;;;;;;;;;;;;;15.13;77.55;101831.05;106440;1260;61368;-81
2023/10/06 08:01:08;;;;;;;;;;;;;;;15.15;77.31;101827.89;106549;1261;126377;-81
2023/10/06 08:03:37;;;;;;;;;;;;;;;15.14;77.25;101828.58;106193;1261;64273;-82
2023/10/06 08:06:05;;;;;;;;;;;;;;;15.12;76.94;101829.77;106140;1260;125234;-82
2023/10/06 08:08:33;;;;;;;;;;;;;;;15.07;77.00;101828.75;106104;1265;61273;-81
2023/10/06 08:11:02;;;;;;;;;;;;;;;15.09;76.99;101824.24;107028;1263;61176;-81
2023/10/06 08:13:30;;;;;;;;;;;;;;;15.14;76.92;101815.85;107709;1260;125424;-82
2023/10/06 08:15:58;;;;;;;;;;;;;;;15.20;76.81;101814.56;106241;1261;66334;-81
2023/10/06 08:18:28;;;;;;;;;;;;;;;15.29;76.90;101814.23;106333;1260;124219;-81
2023/10/06 08:20:54;;;;;;;;;;;;;;;15.35;76.67;101811.73;106466;1261;61387;-81
2023/10/06 08:23:21;;;;;;;;;;;;;;;15.42;76.51;101806.23;106333;1260;61421;-81
2023/10/06 08:25:49;;;;;;;;;;;;;;;15.50;76.59;101808.33;106251;1259;124703;-82
2023/10/06 08:28:15;;;;;;;;;;;;;;;15.59;76.33;101804.82;106360;1259;65056;-82
2023/10/06 08:30:42;;;;;;;;;;;;;;;15.65;76.12;101801.58;106118;1261;125392;-81
2023/10/06 08:33:09;;;;;;;;;;;;;;;15.66;75.92;101799.12;106322;1263;61176;-81
2023/10/06 08:35:40;;;;;;;;;;;;;;;15.63;75.68;101797.29;106233;1260;61366;-81
2023/10/06 08:38:07;;;;;;;;;;;;;;;15.58;75.46;101795.59;106332;1260;74345;-83
2023/10/06 08:40:35;;;;;;;;;;;;;;;15.51;75.34;101801.10;106170;1261;66246;-80
2023/10/06 08:43:02;;;;;;;;;;;;;;;15.48;75.45;101799.46;106264;1264;125229;-83
2023/10/06 08:45:29;;;;;;;;;;;;;;;15.54;75.67;101802.08;106226;1260;59577;-81
2023/10/06 08:47:58;;;;;;;;;;;;;;;15.67;75.90;101798.45;106279;1263;125246;-82
2023/10/06 08:50:29;;;;;;;;;;;;;;;15.81;75.78;101788.33;106198;1260;73396;-82
2023/10/06 08:52:56;;;;;;;;;;;;;;;15.89;75.36;101785.66;106264;1264;66340;-82
2023/10/06 08:55:23;;;;;;;;;;;;;;;15.92;75.21;101784.46;106299;1261;125115;-80
2023/10/06 08:57:50;;;;;;;;;;;;;;;15.92;75.04;101778.27;106223;1261;61357;-82
2023/10/06 09:00:31;;;;;;;;;;;;;;;15.93;75.01;101775.45;106358;1261;125089;-82
2023/10/06 09:03:07;;;;;;;;;;;;;;;15.92;74.73;101771.02;106292;1259;74689;-81
2023/10/06 09:05:40;;;;;;;;;;;;;;;15.97;74.77;101770.04;106425;1260;66493;-81
2023/10/06 09:08:08;;;;;;;;;;;;;;;16.04;74.82;101766.27;106327;1259;72035;-81
2023/10/06 09:10:40;;;;;;;;;;;;;;;16.04;74.44;101770.53;106562;1259;61178;-81
2023/10/06 09:13:08;;;;;;;;;;;;;;;15.97;74.02;101774.11;106154;1263;125151;-83
2023/10/06 09:15:39;;;;;;;;;;;;;;;15.86;73.96;101772.84;106100;1260;73375;-83
2023/10/06 09:18:19;;;;;;;;;;;;;;;15.79;73.89;101772.00;106018;1260;245478;-81
2023/10/06 09:20:47;;;;;;;;;;;;;;;15.75;74.05;101769.27;106394;1260;71434;-81
2023/10/06 09:23:32;;;;;;;;;;;;;;;15.71;73.99;101766.67;106411;1263;61257;-81
2023/10/06 09:26:00;;;;;;;;;;;;;;;15.66;73.97;101757.19;106278;1261;124462;-81
2023/10/06 09:28:27;;;;;;;;;;;;;;;15.67;73.95;101755.98;106172;1261;74421;-81
2023/10/06 09:30:57;;;;;;;;;;;;;;;15.68;73.85;101754.23;106016;1259;124367;-81
2023/10/06 09:33:25;;;;;;;;;;;;;;;15.67;73.63;101754.02;106214;1264;72788;-81
2023/10/06 09:36:16;;;;;;;;;;;;;;;15.63;73.49;101754.83;106146;1260;124925;-81
2023/10/06 09:38:44;;;;;;;;;;;;;;;15.61;73.31;101754.09;106337;1264;61271;-81
2023/10/06 09:41:11;;;;;;;;;;;;;;;15.61;73.37;101744.17;106276;1260;73456;-81
2023/10/06 09:43:40;;;;;;;;;;;;;;;15.69;73.45;101743.10;106217;1260;125094;-83
2023/10/06 09:46:16;;;;;;;;;;;;;;;15.78;73.44;101740.45;106351;1260;72498;-81
2023/10/06 09:48:43;;;;;;;;;;;;;;;15.91;73.50;101736.65;106169;1262;124946;-81
2023/10/06 09:51:10;;;;;;;;;;;;;;;15.99;73.28;101733.80;106172;1266;61370;-81
2023/10/06 09:53:38;;;;;;;;;;;;;;;16.04;73.04;101736.02;106292;1261;74683;-82
2023/10/06 09:56:06;;;;;;;;;;;;;;;16.09;73.05;101735.76;106284;1259;125121;-82
2023/10/06 09:58:33;;;;;;;;;;;;;;;16.11;72.89;101723.40;106152;1260;72722;-83
2023/10/06 10:01:00;;;;;;;;;;;;;;;16.15;72.92;101716.72;106079;1260;124930;-83
2023/10/06 10:03:27;;;;;;;;;;;;;;;16.19;72.79;101716.77;106197;1260;61229;-83
2023/10/06 10:05:55;;;;;;;;;;;;;;;16.18;72.59;101715.70;106005;1261;124687;-83
2023/10/06 10:08:22;;;;;;;;;;;;;;;16.25;72.65;101709.63;106235;1259;66095;-81
2023/10/06 10:10:52;;;;;;;;;;;;;;;16.32;72.50;101705.87;106443;1262;72734;-81
2023/10/06 10:13:34;;;;;;;;;;;;;;;16.38;72.28;101704.36;106250;1260;124955;-82
2023/10/06 10:16:19;;;;;;;;;;;;;;;16.40;71.95;101693.41;106283;1264;61338;-81
2023/10/06 10:18:56;;;;;;;;;;;;;;;16.39;71.96;101696.41;106186;1260;124561;-81
2023/10/06 10:21:23;;;;;;;;;;;;;;;16.42;71.68;101688.30;106455;1257;64754;-81
2023/10/06 10:23:49;;;;;;;;;;;;;;;16.41;71.59;101681.92;106300;1261;124595;-81
2023/10/06 10:26:22;;;;;;;;;;;;;;;16.40;71.46;101678.70;106333;1260;61373;-82
2023/10/06 10:29:04;;;;;;;;;;;;;;;16.41;71.50;101670.92;106414;1258;61195;-82
2023/10/06 10:31:36;;;;;;;;;;;;;;;16.49;71.77;101672.11;106229;1263;124506;-82
2023/10/06 10:34:02;;;;;;;;;;;;;;;16.55;71.53;101671.15;106370;1260;65098;-81
2023/10/06 10:36:29;;;;;;;;;;;;;;;16.52;71.51;101659.77;106177;1260;125039;-81
2023/10/06 10:38:56;;;;;;;;;;;;;;;16.49;71.59;101650.86;106142;1259;61340;-82
2023/10/06 10:41:25;;;;;;;;;;;;;;;16.57;71.83;101646.02;106274;1260;61264;-81
2023/10/06 10:43:53;;;;;;;;;;;;;;;16.70;71.79;101647.96;106241;1263;125426;-81
2023/10/06 10:46:30;;;;;;;;;;;;;;;16.77;71.61;101640.45;106318;1259;66284;-81
2023/10/06 10:48:58;;;;;;;;;;;;;;;16.81;71.41;101638.92;106038;1266;125303;-81
2023/10/06 10:51:25;;;;;;;;;;;;;;;16.87;71.49;101634.23;106243;1261;61196;-81
2023/10/06 10:53:52;;;;;;;;;;;;;;;16.86;71.14;101627.14;106131;1264;124666;-83
2023/10/06 10:56:19;;;;;;;;;;;;;;;16.73;70.81;101634.20;106247;1263;74464;-81
2023/10/06 10:58:46;;;;;;;;;;;;;;;16.59;70.74;101632.55;106285;1260;61378;-82
2023/10/06 11:01:29;;;;;;;;;;;;;;;16.54;70.99;101636.39;106115;1260;124503;-81
2023/10/06 11:04:18;;;;;;;;;;;;;;;16.57;71.20;101630.24;106286;1260;61308;-82
2023/10/06 11:06:45;;;;;;;;;;;;;;;16.69;71.44;101624.55;106082;1260;124486;-81
2023/10/06 11:09:36;;;;;;;;;;;;;;;16.78;71.27;101616.18;106221;1261;72720;-81
2023/10/06 11:12:05;;;;;;;;;;;;;;;16.77;70.84;101603.23;106235;1260;124966;-81
2023/10/06 11:14:37;;;;;;;;;;;;;;;16.79;70.89;101602.72;107170;1260;73441;-81
2023/10/06 11:17:05;;;;;;;;;;;;;;;16.79;70.74;101599.88;106243;1261;61379;-81
2023/10/06 11:19:32;;;;;;;;;;;;;;;16.79;70.69;101597.92;106025;1261;124475;-82
2023/10/06 11:22:08;;;;;;;;;;;;;;;16.79;70.64;101593.50;106243;1261;74473;-81
2023/10/06 11:24:35;;;;;;;;;;;;;;;16.74;70.29;101595.73;106201;1260;124861;-81
2023/10/06 11:27:17;;;;;;;;;;;;;;;16.63;70.24;101589.94;106167;1264;71368;-81
2023/10/06 11:29:45;;;;;;;;;;;;;;;16.50;70.13;101586.91;106063;1260;126372;-81
2023/10/06 11:32:12;;;;;;;;;;;;;;;16.40;70.32;101582.86;106251;1263;61187;-81
2023/10/06 11:34:41;;;;;;;;;;;;;;;16.37;70.45;101576.44;106272;1260;74706;-81
2023/10/06 11:37:08;;;;;;;;;;;;;;;16.33;70.47;101572.67;106137;1259;125222;-82
2023/10/06 11:39:35;;;;;;;;;;;;;;;16.30;70.55;101564.66;106207;1259;71012;-81
2023/10/06 11:42:21;;;;;;;;;;;;;;;16.25;70.43;101554.48;106289;1259;125204;-82
2023/10/06 11:44:48;;;;;;;;;;;;;;;16.23;70.70;101550.91;106281;1265;61301;-84
2023/10/06 11:47:14;;;;;;;;;;;;;;;16.31;70.67;101547.48;106241;1265;73085;-81
2023/10/06 11:49:53;;;;;;;;;;;;;;;16.42;70.73;101557.22;106231;1261;124681;-82
2023/10/06 11:52:19;;;;;;;;;;;;;;;16.59;70.73;101555.48;106322;1260;71417;-83
2023/10/06 11:54:46;;;;;;;;;;;;;;;16.66;70.36;101545.83;106343;1259;124557;-82
2023/10/06 11:57:16;;;;;;;;;;;;;;;16.68;70.31;101534.52;106156;1258;61297;-82
2023/10/06 11:59:53;;;;;;;;;;;;;;;16.68;70.22;101530.27;106170;1259;124738;-81
2023/10/06 12:02:21;;;;;;;;;;;;;;;16.67;70.09;101527.95;106387;1259;66064;-82
2023/10/06 12:04:48;;;;;;;;;;;;;;;16.60;69.95;101525.38;106254;1259;71375;-81
2023/10/06 12:07:21;;;;;;;;;;;;;;;16.55;70.05;101522.31;105975;1259;124714;-83
2023/10/06 12:09:48;;;;;;;;;;;;;;;16.58;70.15;101515.08;106101;1260;61249;-82
2023/10/06 12:12:19;;;;;;;;;;;;;;;16.62;70.17;101508.75;106171;1262;125454;-82
2023/10/06 12:14:45;;;;;;;;;;;;;;;16.67;70.30;101495.19;106303;1264;66018;-81
2023/10/06 12:17:14;;;;;;;;;;;;;;;16.76;70.34;101484.81;106341;1260;70329;-81
2023/10/06 12:19:44;;;;;;;;;;;;;;;16.85;70.17;101485.65;106255;1258;124511;-82
2023/10/06 12:22:10;;;;;;;;;;;;;;;16.96;70.15;101485.60;106165;1257;61371;-81
2023/10/06 12:24:37;;;;;;;;;;;;;;;17.01;69.86;101477.30;106122;1259;125097;-81
2023/10/06 12:27:03;;;;;;;;;;;;;;;17.02;69.82;101470.40;106299;1261;66274;-81
2023/10/06 12:29:31;;;;;;;;;;;;;;;17.04;69.75;101464.75;106278;1259;72728;-81
2023/10/06 12:31:58;;;;;;;;;;;;;;;17.06;69.65;101457.67;106137;1258;124931;-82
2023/10/06 12:34:27;;;;;;;;;;;;;;;17.09;69.70;101446.35;106254;1263;61315;-82
2023/10/06 12:37:01;;;;;;;;;;;;;;;17.19;69.76;101439.18;106785;1259;124879;-80
2023/10/06 12:39:37;;;;;;;;;;;;;;;17.27;69.54;101441.02;106249;1260;64211;-83
2023/10/06 12:42:04;;;;;;;;;;;;;;;17.35;69.57;101437.20;106117;1259;124664;-81
2023/10/06 12:44:30;;;;;;;;;;;;;;;17.42;69.36;101432.62;106208;1263;61676;-80
2023/10/06 12:47:03;;;;;;;;;;;;;;;17.43;69.11;101429.09;106246;1259;59294;-81
2023/10/06 12:49:33;;;;;;;;;;;;;;;17.46;69.14;101424.15;106149;1261;124376;-80
2023/10/06 12:51:59;;;;;;;;;;;;;;;17.51;69.08;101411.75;106244;1259;66329;-80
2023/10/06 12:54:26;;;;;;;;;;;;;;;17.46;68.77;101399.66;106197;1259;124603;-81